sensor_id;sensor_type;location;lat;lon;timestamp;pressure;altitude;pressure_sealevel;temperature;humidity
77737;BME280;66903;59.926;30.404;2023-04-09T00:02:52;102521.47;;;27.34;28.19
77737;BME280;66903;59.926;30.404;2023-04-09T00:13:31;102512.56;;;27.30;27.94
77737;BME280;66903;59.926;30.404;2023-04-09T00:18:31;102530.03;;;27.28;27.72
77737;BME280;66903;59.926;30.404;2023-04-09T00:23:32;102523.47;;;27.28;27.91
77737;BME280;66903;59.926;30.404;2023-04-09T00:28:36;102525.75;;;27.26;28.01
77737;BME280;66903;59.926;30.404;2023-04-09T00:33:36;102524.31;;;27.23;28.05
77737;BME280;66903;59.926;30.404;2023-04-09T00:38:37;102525.47;;;27.22;27.93
77737;BME280;66903;59.926;30.404;2023-04-09T00:43:38;102512.25;;;27.21;28.07
77737;BME280;66903;59.926;30.404;2023-04-09T00:48:38;102513.09;;;27.22;28.14
77737;BME280;66903;59.926;30.404;2023-04-09T00:53:46;102526.59;;;27.21;27.96
77737;BME280;66903;59.926;30.404;2023-04-09T00:58:47;102513.41;;;27.20;27.92
77737;BME280;66903;59.926;30.404;2023-04-09T01:03:48;102512.53;;;27.20;28.12
77737;BME280;66903;59.926;30.404;2023-04-09T01:14:21;102518.84;;;27.22;27.79
77737;BME280;66903;59.926;30.404;2023-04-09T01:30:17;102509.94;;;27.13;27.72
77737;BME280;66903;59.926;30.404;2023-04-09T01:35:19;102526.59;;;27.16;27.68
77737;BME280;66903;59.926;30.404;2023-04-09T01:46:08;102530.59;;;27.15;27.93
77737;BME280;66903;59.926;30.404;2023-04-09T01:51:10;102528.03;;;27.14;27.29
77737;BME280;66903;59.926;30.404;2023-04-09T01:56:13;102534.03;;;27.12;27.43
77737;BME280;66903;59.926;30.404;2023-04-09T02:01:42;102527.16;;;27.13;27.29
77737;BME280;66903;59.926;30.404;2023-04-09T02:06:54;102528.28;;;27.12;27.40
77737;BME280;66903;59.926;30.404;2023-04-09T02:12:19;102530.59;;;27.15;27.39
77737;BME280;66903;59.926;30.404;2023-04-09T02:17:23;102531.44;;;27.06;27.36
77737;BME280;66903;59.926;30.404;2023-04-09T02:22:36;102533.72;;;27.09;27.31
77737;BME280;66903;59.926;30.404;2023-04-09T02:27:36;102531.44;;;27.11;27.27
77737;BME280;66903;59.926;30.404;2023-04-09T02:32:37;102536.06;;;27.12;27.55
77737;BME280;66903;59.926;30.404;2023-04-09T02:37:37;102533.75;;;27.14;27.17
77737;BME280;66903;59.926;30.404;2023-04-09T02:42:38;102523.41;;;27.13;27.36
77737;BME280;66903;59.926;30.404;2023-04-09T02:47:38;102531.16;;;27.12;27.49
77737;BME280;66903;59.926;30.404;2023-04-09T02:52:39;102533.19;;;27.12;27.47
77737;BME280;66903;59.926;30.404;2023-04-09T02:57:39;102534.03;;;27.12;27.28
77737;BME280;66903;59.926;30.404;2023-04-09T03:02:40;102526.56;;;27.11;26.83
77737;BME280;66903;59.926;30.404;2023-04-09T03:07:41;102525.69;;;27.11;26.96
77737;BME280;66903;59.926;30.404;2023-04-09T03:12:41;102531.44;;;27.11;26.87
77737;BME280;66903;59.926;30.404;2023-04-09T03:17:43;102534.59;;;27.09;26.75
77737;BME280;66903;59.926;30.404;2023-04-09T03:22:44;102531.44;;;27.11;26.92
77737;BME280;66903;59.926;30.404;2023-04-09T03:27:44;102536.88;;;27.12;27.03
77737;BME280;66903;59.926;30.404;2023-04-09T03:32:45;102532.88;;;27.08;26.83
77737;BME280;66903;59.926;30.404;2023-04-09T03:37:45;102546.66;;;27.11;26.87
77737;BME280;66903;59.926;30.404;2023-04-09T03:42:46;102548.66;;;27.11;26.68
77737;BME280;66903;59.926;30.404;2023-04-09T03:47:46;102548.66;;;27.11;26.86
77737;BME280;66903;59.926;30.404;2023-04-09T03:52:47;102543.78;;;27.11;26.81
77737;BME280;66903;59.926;30.404;2023-04-09T03:57:48;102539.22;;;27.10;26.85
77737;BME280;66903;59.926;30.404;2023-04-09T04:02:48;102550.94;;;27.09;26.95
77737;BME280;66903;59.926;30.404;2023-04-09T04:07:49;102542.34;;;27.09;26.82
77737;BME280;66903;59.926;30.404;2023-04-09T04:12:49;102546.66;;;27.06;26.61
77737;BME280;66903;59.926;30.404;2023-04-09T04:17:50;102557.75;;;26.88;26.53
77737;BME280;66903;59.926;30.404;2023-04-09T04:22:50;102554.25;;;26.71;27.03
77737;BME280;66903;59.926;30.404;2023-04-09T04:27:51;102559.03;;;26.60;26.47
77737;BME280;66903;59.926;30.404;2023-04-09T04:32:51;102551.81;;;26.53;26.29
77737;BME280;66903;59.926;30.404;2023-04-09T04:37:52;102548.31;;;26.41;26.76
77737;BME280;66903;59.926;30.404;2023-04-09T04:42:52;102552.50;;;26.23;27.07
77737;BME280;66903;59.926;30.404;2023-04-09T04:47:53;102548.44;;;26.14;27.21
77737;BME280;66903;59.926;30.404;2023-04-09T04:52:53;102548.97;;;26.06;27.46
77737;BME280;66903;59.926;30.404;2023-04-09T04:57:54;102555.84;;;26.05;26.85
77737;BME280;66903;59.926;30.404;2023-04-09T05:02:54;102549.84;;;26.06;26.76
77737;BME280;66903;59.926;30.404;2023-04-09T05:07:55;102553.00;;;26.10;26.27
77737;BME280;66903;59.926;30.404;2023-04-09T05:12:56;102562.69;;;26.04;26.47
77737;BME280;66903;59.926;30.404;2023-04-09T05:17:56;102564.44;;;26.05;26.30
77737;BME280;66903;59.926;30.404;2023-04-09T05:22:57;102573.06;;;26.10;26.25
77737;BME280;66903;59.926;30.404;2023-04-09T05:27:57;102572.06;;;26.31;26.04
77737;BME280;66903;59.926;30.404;2023-04-09T05:32:58;102582.00;;;26.65;25.52
77737;BME280;66903;59.926;30.404;2023-04-09T05:37:59;102585.91;;;26.91;25.30
77737;BME280;66903;59.926;30.404;2023-04-09T05:42:59;102583.38;;;27.14;25.00
77737;BME280;66903;59.926;30.404;2023-04-09T05:48:00;102584.91;;;27.37;24.63
77737;BME280;66903;59.926;30.404;2023-04-09T05:53:01;102583.25;;;27.66;24.74
77737;BME280;66903;59.926;30.404;2023-04-09T05:58:01;102596.19;;;28.19;24.49
77737;BME280;66903;59.926;30.404;2023-04-09T06:03:02;102596.72;;;28.61;23.98
77737;BME280;66903;59.926;30.404;2023-04-09T06:08:02;102588.88;;;28.82;23.56
77737;BME280;66903;59.926;30.404;2023-04-09T06:13:03;102593.72;;;28.96;23.61
77737;BME280;66903;59.926;30.404;2023-04-09T06:18:03;102598.81;;;29.09;23.30
77737;BME280;66903;59.926;30.404;2023-04-09T06:23:04;102606.28;;;29.20;23.50
77737;BME280;66903;59.926;30.404;2023-04-09T06:28:04;102605.34;;;29.35;23.76
77737;BME280;66903;59.926;30.404;2023-04-09T06:33:05;102618.16;;;29.58;23.54
77737;BME280;66903;59.926;30.404;2023-04-09T06:38:06;102622.41;;;29.75;23.38
77737;BME280;66903;59.926;30.404;2023-04-09T06:43:07;102629.47;;;29.93;23.20
77737;BME280;66903;59.926;30.404;2023-04-09T06:48:07;102625.19;;;30.19;22.69
77737;BME280;66903;59.926;30.404;2023-04-09T06:53:09;102629.22;;;30.52;22.54
77737;BME280;66903;59.926;30.404;2023-04-09T06:58:10;102638.25;;;30.97;22.41
77737;BME280;66903;59.926;30.404;2023-04-09T07:03:10;102640.09;;;31.35;22.10
77737;BME280;66903;59.926;30.404;2023-04-09T07:08:11;102645.13;;;31.67;22.17
77737;BME280;66903;59.926;30.404;2023-04-09T07:13:12;102649.91;;;31.95;21.80
77737;BME280;66903;59.926;30.404;2023-04-09T07:18:12;102655.50;;;32.24;21.58
77737;BME280;66903;59.926;30.404;2023-04-09T07:23:13;102657.66;;;32.50;20.97
77737;BME280;66903;59.926;30.404;2023-04-09T07:28:13;102654.06;;;32.72;21.50
77737;BME280;66903;59.926;30.404;2023-04-09T07:33:14;102651.88;;;32.96;21.31
77737;BME280;66903;59.926;30.404;2023-04-09T07:38:15;102647.03;;;33.19;21.43
77737;BME280;66903;59.926;30.404;2023-04-09T07:43:15;102646.91;;;33.37;21.06
77737;BME280;66903;59.926;30.404;2023-04-09T07:48:16;102656.06;;;33.58;20.93
77737;BME280;66903;59.926;30.404;2023-04-09T07:53:17;102650.34;;;33.67;20.90
77737;BME280;66903;59.926;30.404;2023-04-09T07:58:17;102657.94;;;33.76;21.01
77737;BME280;66903;59.926;30.404;2023-04-09T08:03:18;102660.28;;;33.88;21.18
77737;BME280;66903;59.926;30.404;2023-04-09T08:08:18;102650.69;;;34.01;20.92
77737;BME280;66903;59.926;30.404;2023-04-09T08:13:19;102650.13;;;34.12;20.49
77737;BME280;66903;59.926;30.404;2023-04-09T08:18:22;102650.19;;;34.21;20.25
77737;BME280;66903;59.926;30.404;2023-04-09T08:23:22;102654.53;;;34.32;20.72
77737;BME280;66903;59.926;30.404;2023-04-09T08:28:23;102655.75;;;34.39;20.17
77737;BME280;66903;59.926;30.404;2023-04-09T08:33:24;102639.09;;;34.45;20.69
77737;BME280;66903;59.926;30.404;2023-04-09T08:38:24;102654.34;;;34.50;20.13
77737;BME280;66903;59.926;30.404;2023-04-09T08:43:26;102656.25;;;34.55;20.63
77737;BME280;66903;59.926;30.404;2023-04-09T08:48:27;102656.38;;;34.50;20.59
77737;BME280;66903;59.926;30.404;2023-04-09T08:53:29;102663.84;;;34.42;20.74
77737;BME280;66903;59.926;30.404;2023-04-09T08:58:29;102653.09;;;34.43;20.58
77737;BME280;66903;59.926;30.404;2023-04-09T09:03:30;102655.94;;;34.56;20.91
77737;BME280;66903;59.926;30.404;2023-04-09T09:08:30;102653.13;;;34.74;20.94
77737;BME280;66903;59.926;30.404;2023-04-09T09:13:31;102656.44;;;34.89;20.42
77737;BME280;66903;59.926;30.404;2023-04-09T09:18:42;102665.97;;;35.12;20.98
77737;BME280;66903;59.926;30.404;2023-04-09T09:23:43;102666.69;;;35.17;20.63
77737;BME280;66903;59.926;30.404;2023-04-09T09:28:44;102655.78;;;35.23;20.48
77737;BME280;66903;59.926;30.404;2023-04-09T09:33:48;102660.22;;;35.29;20.15
77737;BME280;66903;59.926;30.404;2023-04-09T09:38:54;102665.75;;;35.39;19.95
77737;BME280;66903;59.926;30.404;2023-04-09T09:43:55;102664.34;;;35.36;19.96
77737;BME280;66903;59.926;30.404;2023-04-09T09:48:56;102656.31;;;35.33;19.42
77737;BME280;66903;59.926;30.404;2023-04-09T09:53:57;102667.25;;;35.28;19.82
77737;BME280;66903;59.926;30.404;2023-04-09T10:03:59;102653.22;;;35.21;19.60
77737;BME280;66903;59.926;30.404;2023-04-09T10:09:03;102662.13;;;35.25;19.60
77737;BME280;66903;59.926;30.404;2023-04-09T10:14:06;102667.22;;;35.19;19.40
77737;BME280;66903;59.926;30.404;2023-04-09T10:19:06;102668.38;;;35.18;18.96
77737;BME280;66903;59.926;30.404;2023-04-09T10:24:12;102672.84;;;35.16;19.03
77737;BME280;66903;59.926;30.404;2023-04-09T10:29:15;102665.97;;;35.12;19.15
77737;BME280;66903;59.926;30.404;2023-04-09T10:34:17;102664.09;;;35.07;18.80
77737;BME280;66903;59.926;30.404;2023-04-09T10:39:18;102661.34;;;35.02;19.00
77737;BME280;66903;59.926;30.404;2023-04-09T10:44:25;102660.28;;;34.98;18.66
77737;BME280;66903;59.926;30.404;2023-04-09T10:49:26;102672.06;;;34.93;19.00
77737;BME280;66903;59.926;30.404;2023-04-09T10:59:41;102683.69;;;34.93;18.95
77737;BME280;66903;59.926;30.404;2023-04-09T11:09:52;102677.47;;;34.64;18.87
77737;BME280;66903;59.926;30.404;2023-04-09T11:14:53;102673.59;;;34.46;18.57
77737;BME280;66903;59.926;30.404;2023-04-09T11:19:54;102663.38;;;34.27;19.05
77737;BME280;66903;59.926;30.404;2023-04-09T11:24:55;102666.53;;;34.17;18.80
77737;BME280;66903;59.926;30.404;2023-04-09T11:29:56;102681.41;;;34.02;19.24
77737;BME280;66903;59.926;30.404;2023-04-09T11:34:56;102683.81;;;33.86;18.87
77737;BME280;66903;59.926;30.404;2023-04-09T11:39:57;102674.19;;;33.64;19.05
77737;BME280;66903;59.926;30.404;2023-04-09T11:44:58;102682.56;;;33.38;19.49
77737;BME280;66903;59.926;30.404;2023-04-09T11:50:00;102686.72;;;33.18;19.04
77737;BME280;66903;59.926;30.404;2023-04-09T11:55:01;102677.28;;;32.99;19.66
77737;BME280;66903;59.926;30.404;2023-04-09T12:00:06;102674.47;;;32.81;19.38
77737;BME280;66903;59.926;30.404;2023-04-09T12:05:12;102680.75;;;32.69;19.58
77737;BME280;66903;59.926;30.404;2023-04-09T12:10:13;102682.00;;;32.49;19.84
77737;BME280;66903;59.926;30.404;2023-04-09T12:15:22;102685.50;;;32.46;20.01
77737;BME280;66903;59.926;30.404;2023-04-09T12:20:34;102683.09;;;32.35;20.07
77737;BME280;66903;59.926;30.404;2023-04-09T12:25:40;102674.84;;;32.10;20.55
77737;BME280;66903;59.926;30.404;2023-04-09T12:30:41;102681.25;;;32.07;20.67
77737;BME280;66903;59.926;30.404;2023-04-09T12:35:42;102682.56;;;31.96;20.25
77737;BME280;66903;59.926;30.404;2023-04-09T12:40:43;102676.63;;;31.87;20.23
77737;BME280;66903;59.926;30.404;2023-04-09T12:45:44;102692.94;;;31.78;20.33
77737;BME280;66903;59.926;30.404;2023-04-09T12:50:44;102684.97;;;31.70;20.49
77737;BME280;66903;59.926;30.404;2023-04-09T12:55:45;102688.53;;;31.62;20.09
77737;BME280;66903;59.926;30.404;2023-04-09T13:00:46;102680.34;;;31.51;20.25
77737;BME280;66903;59.926;30.404;2023-04-09T13:05:46;102696.81;;;31.50;20.38
77737;BME280;66903;59.926;30.404;2023-04-09T13:10:47;102696.25;;;31.48;20.37
77737;BME280;66903;59.926;30.404;2023-04-09T13:15:47;102694.00;;;31.45;20.60
77737;BME280;66903;59.926;30.404;2023-04-09T13:20:48;102683.06;;;31.42;20.51
77737;BME280;66903;59.926;30.404;2023-04-09T13:25:48;102689.69;;;31.42;20.64
77737;BME280;66903;59.926;30.404;2023-04-09T13:30:49;102696.44;;;31.33;20.19
77737;BME280;66903;59.926;30.404;2023-04-09T13:35:50;102686.72;;;31.24;20.33
77737;BME280;66903;59.926;30.404;2023-04-09T13:40:50;102683.34;;;31.17;20.16
77737;BME280;66903;59.926;30.404;2023-04-09T13:45:51;102674.81;;;31.07;20.41
77737;BME280;66903;59.926;30.404;2023-04-09T13:50:53;102683.81;;;31.00;20.32
77737;BME280;66903;59.926;30.404;2023-04-09T13:55:53;102692.22;;;30.97;20.35
77737;BME280;66903;59.926;30.404;2023-04-09T14:00:54;102691.97;;;30.93;20.10
77737;BME280;66903;59.926;30.404;2023-04-09T14:05:55;102683.63;;;30.92;20.52
77737;BME280;66903;59.926;30.404;2023-04-09T14:10:55;102690.66;;;30.86;19.85
77737;BME280;66903;59.926;30.404;2023-04-09T14:15:56;102696.47;;;30.81;20.25
77737;BME280;66903;59.926;30.404;2023-04-09T14:20:57;102692.13;;;30.78;20.46
77737;BME280;66903;59.926;30.404;2023-04-09T14:25:58;102689.00;;;30.75;20.23
77737;BME280;66903;59.926;30.404;2023-04-09T14:30:58;102693.38;;;30.72;20.20
77737;BME280;66903;59.926;30.404;2023-04-09T14:35:59;102686.53;;;30.63;19.85
77737;BME280;66903;59.926;30.404;2023-04-09T14:41:00;102680.31;;;30.51;20.33
77737;BME280;66903;59.926;30.404;2023-04-09T14:46:00;102680.63;;;30.44;20.47
77737;BME280;66903;59.926;30.404;2023-04-09T14:51:02;102684.13;;;30.41;20.20
77737;BME280;66903;59.926;30.404;2023-04-09T14:56:02;102679.25;;;30.42;20.03
77737;BME280;66903;59.926;30.404;2023-04-09T15:01:03;102676.34;;;30.42;20.02
77737;BME280;66903;59.926;30.404;2023-04-09T15:06:04;102675.19;;;30.43;19.92
77737;BME280;66903;59.926;30.404;2023-04-09T15:11:06;102680.06;;;30.42;19.67
77737;BME280;66903;59.926;30.404;2023-04-09T15:16:07;102675.78;;;30.40;19.72
77737;BME280;66903;59.926;30.404;2023-04-09T15:21:08;102674.66;;;30.36;19.55
77737;BME280;66903;59.926;30.404;2023-04-09T15:26:08;102672.41;;;30.33;19.40
77737;BME280;66903;59.926;30.404;2023-04-09T15:31:09;102668.63;;;30.32;19.97
77737;BME280;66903;59.926;30.404;2023-04-09T15:36:10;102673.84;;;30.30;19.71
77737;BME280;66903;59.926;30.404;2023-04-09T15:41:11;102677.03;;;30.29;19.65
77737;BME280;66903;59.926;30.404;2023-04-09T15:46:11;102676.47;;;30.27;19.58
77737;BME280;66903;59.926;30.404;2023-04-09T15:51:12;102683.72;;;30.24;19.38
77737;BME280;66903;59.926;30.404;2023-04-09T15:56:13;102680.53;;;30.21;19.82
77737;BME280;66903;59.926;30.404;2023-04-09T16:01:14;102679.13;;;30.18;19.99
77737;BME280;66903;59.926;30.404;2023-04-09T16:06:15;102685.47;;;30.15;20.51
77737;BME280;66903;59.926;30.404;2023-04-09T16:11:15;102684.63;;;30.15;20.58
77737;BME280;66903;59.926;30.404;2023-04-09T16:16:17;102681.72;;;30.15;20.59
77737;BME280;66903;59.926;30.404;2023-04-09T16:21:18;102684.06;;;30.13;20.19
77737;BME280;66903;59.926;30.404;2023-04-09T16:26:18;102688.69;;;30.14;20.66
77737;BME280;66903;59.926;30.404;2023-04-09T16:31:19;102689.25;;;30.11;20.49
77737;BME280;66903;59.926;30.404;2023-04-09T16:36:20;102696.50;;;30.08;20.92
77737;BME280;66903;59.926;30.404;2023-04-09T16:41:20;102687.88;;;30.03;20.96
77737;BME280;66903;59.926;30.404;2023-04-09T16:46:21;102688.19;;;29.97;21.03
77737;BME280;66903;59.926;30.404;2023-04-09T16:51:21;102691.38;;;29.95;20.29
77737;BME280;66903;59.926;30.404;2023-04-09T16:56:22;102696.88;;;29.92;20.67
77737;BME280;66903;59.926;30.404;2023-04-09T17:01:23;102698.66;;;29.88;20.42
77737;BME280;66903;59.926;30.404;2023-04-09T17:06:23;102702.72;;;29.82;20.74
77737;BME280;66903;59.926;30.404;2023-04-09T17:11:24;102708.25;;;29.73;20.17
77737;BME280;66903;59.926;30.404;2023-04-09T17:16:25;102705.97;;;29.60;20.36
77737;BME280;66903;59.926;30.404;2023-04-09T17:21:25;102697.69;;;29.49;20.01
77737;BME280;66903;59.926;30.404;2023-04-09T17:26:27;102701.50;;;29.34;19.92
77737;BME280;66903;59.926;30.404;2023-04-09T17:31:28;102713.38;;;29.22;20.14
77737;BME280;66903;59.926;30.404;2023-04-09T17:36:28;102706.22;;;28.90;20.56
77737;BME280;66903;59.926;30.404;2023-04-09T17:41:29;102710.03;;;28.55;20.67
77737;BME280;66903;59.926;30.404;2023-04-09T17:46:29;102709.16;;;28.29;20.70
77737;BME280;66903;59.926;30.404;2023-04-09T17:51:30;102715.47;;;28.11;20.63
77737;BME280;66903;59.926;30.404;2023-04-09T17:56:32;102719.75;;;27.94;21.16
77737;BME280;66903;59.926;30.404;2023-04-09T18:01:34;102704.16;;;27.80;21.24
77737;BME280;66903;59.926;30.404;2023-04-09T18:06:35;102709.00;;;27.69;21.06
77737;BME280;66903;59.926;30.404;2023-04-09T18:11:35;102706.97;;;27.60;21.34
77737;BME280;66903;59.926;30.404;2023-04-09T18:16:37;102717.84;;;27.53;21.43
77737;BME280;66903;59.926;30.404;2023-04-09T18:21:37;102711.25;;;27.42;21.38
77737;BME280;66903;59.926;30.404;2023-04-09T18:26:38;102712.34;;;27.36;21.69
77737;BME280;66903;59.926;30.404;2023-04-09T18:31:38;102718.34;;;27.30;21.96
77737;BME280;66903;59.926;30.404;2023-04-09T18:36:39;102711.72;;;27.29;25.12
77737;BME280;66903;59.926;30.404;2023-04-09T18:41:43;102719.25;;;27.35;25.15
77737;BME280;66903;59.926;30.404;2023-04-09T18:46:44;102716.38;;;27.35;25.68
77737;BME280;66903;59.926;30.404;2023-04-09T18:51:45;102714.94;;;27.38;26.04
77737;BME280;66903;59.926;30.404;2023-04-09T18:56:46;102701.75;;;27.37;25.77
77737;BME280;66903;59.926;30.404;2023-04-09T19:01:47;102708.63;;;27.41;25.37
77737;BME280;66903;59.926;30.404;2023-04-09T19:06:47;102696.84;;;27.37;25.15
77737;BME280;66903;59.926;30.404;2023-04-09T19:11:49;102704.31;;;27.33;24.56
77737;BME280;66903;59.926;30.404;2023-04-09T19:16:49;102708.31;;;27.32;25.16
77737;BME280;66903;59.926;30.404;2023-04-09T19:21:50;102712.88;;;27.28;25.02
77737;BME280;66903;59.926;30.404;2023-04-09T19:26:50;102711.09;;;27.22;24.87
77737;BME280;66903;59.926;30.404;2023-04-09T19:31:54;102702.16;;;27.13;24.91
77737;BME280;66903;59.926;30.404;2023-04-09T19:36:55;102703.34;;;27.17;24.69
77737;BME280;66903;59.926;30.404;2023-04-09T19:41:55;102689.84;;;27.18;24.83
77737;BME280;66903;59.926;30.404;2023-04-09T19:46:56;102698.16;;;27.19;25.00
77737;BME280;66903;59.926;30.404;2023-04-09T19:51:56;102702.78;;;27.20;25.05
77737;BME280;66903;59.926;30.404;2023-04-09T19:56:57;102693.28;;;27.20;24.76
77737;BME280;66903;59.926;30.404;2023-04-09T20:01:59;102695.56;;;27.18;24.81
77737;BME280;66903;59.926;30.404;2023-04-09T20:06:59;102684.97;;;27.18;25.33
77737;BME280;66903;59.926;30.404;2023-04-09T20:12:00;102697.72;;;27.38;24.97
77737;BME280;66903;59.926;30.404;2023-04-09T20:17:06;102690.59;;;27.55;25.07
77737;BME280;66903;59.926;30.404;2023-04-09T20:22:08;102690.06;;;27.68;24.95
77737;BME280;66903;59.926;30.404;2023-04-09T20:27:09;102686.63;;;27.76;25.00
77737;BME280;66903;59.926;30.404;2023-04-09T20:32:10;102701.78;;;27.57;22.61
77737;BME280;66903;59.926;30.404;2023-04-09T20:37:11;102692.69;;;25.50;22.42
77737;BME280;66903;59.926;30.404;2023-04-09T20:42:11;102692.19;;;24.38;25.92
77737;BME280;66903;59.926;30.404;2023-04-09T20:47:12;102695.31;;;24.91;25.74
77737;BME280;66903;59.926;30.404;2023-04-09T20:52:14;102691.34;;;25.57;25.43
77737;BME280;66903;59.926;30.404;2023-04-09T20:57:15;102686.75;;;26.09;24.97
77737;BME280;66903;59.926;30.404;2023-04-09T21:02:15;102686.19;;;26.44;25.38
77737;BME280;66903;59.926;30.404;2023-04-09T21:07:16;102682.72;;;26.74;24.96
77737;BME280;66903;59.926;30.404;2023-04-09T21:12:17;102700.34;;;26.97;24.86
77737;BME280;66903;59.926;30.404;2023-04-09T21:17:17;102690.69;;;27.13;24.76
77737;BME280;66903;59.926;30.404;2023-04-09T21:22:18;102690.44;;;27.25;24.61
77737;BME280;66903;59.926;30.404;2023-04-09T21:27:19;102690.25;;;27.32;24.39
77737;BME280;66903;59.926;30.404;2023-04-09T21:32:19;102678.78;;;27.37;25.47
77737;BME280;66903;59.926;30.404;2023-04-09T21:37:20;102681.69;;;27.47;26.38
77737;BME280;66903;59.926;30.404;2023-04-09T21:42:21;102685.72;;;27.51;26.42
77737;BME280;66903;59.926;30.404;2023-04-09T21:47:22;102688.00;;;27.54;26.14
77737;BME280;66903;59.926;30.404;2023-04-09T21:52:23;102682.84;;;27.56;26.59
77737;BME280;66903;59.926;30.404;2023-04-09T21:57:23;102673.97;;;27.57;26.59
77737;BME280;66903;59.926;30.404;2023-04-09T22:02:24;102665.63;;;27.61;26.56
77737;BME280;66903;59.926;30.404;2023-04-09T22:07:25;102670.22;;;27.62;26.64
77737;BME280;66903;59.926;30.404;2023-04-09T22:12:25;102665.63;;;27.61;26.66
77737;BME280;66903;59.926;30.404;2023-04-09T22:17:26;102680.00;;;27.61;26.36
77737;BME280;66903;59.926;30.404;2023-04-09T22:22:26;102664.19;;;27.58;26.34
77737;BME280;66903;59.926;30.404;2023-04-09T22:27:27;102665.06;;;27.59;26.32
77737;BME280;66903;59.926;30.404;2023-04-09T22:32:27;102653.84;;;27.57;26.16
77737;BME280;66903;59.926;30.404;2023-04-09T22:37:28;102651.28;;;27.56;26.43
77737;BME280;66903;59.926;30.404;2023-04-09T22:42:34;102656.72;;;27.57;26.12
77737;BME280;66903;59.926;30.404;2023-04-09T22:47:36;102658.44;;;27.53;26.11
77737;BME280;66903;59.926;30.404;2023-04-09T22:52:39;102652.97;;;27.52;25.98
77737;BME280;66903;59.926;30.404;2023-04-09T22:57:40;102650.41;;;27.50;26.02
77737;BME280;66903;59.926;30.404;2023-04-09T23:02:42;102648.66;;;27.49;25.83
77737;BME280;66903;59.926;30.404;2023-04-09T23:07:42;102651.28;;;27.51;25.81
77737;BME280;66903;59.926;30.404;2023-04-09T23:12:45;102652.41;;;27.50;26.02
77737;BME280;66903;59.926;30.404;2023-04-09T23:17:45;102650.69;;;27.49;26.11
77737;BME280;66903;59.926;30.404;2023-04-09T23:22:46;102660.13;;;27.49;26.12
77737;BME280;66903;59.926;30.404;2023-04-09T23:27:47;102653.84;;;27.47;25.96
77737;BME280;66903;59.926;30.404;2023-04-09T23:32:47;102652.97;;;27.47;25.85
77737;BME280;66903;59.926;30.404;2023-04-09T23:37:51;102646.06;;;27.48;25.84
77737;BME280;66903;59.926;30.404;2023-04-09T23:42:51;102637.47;;;27.48;25.91
77737;BME280;66903;59.926;30.404;2023-04-09T23:47:52;102646.06;;;27.48;25.46
77737;BME280;66903;59.926;30.404;2023-04-09T23:52:53;102640.63;;;27.46;25.56
77737;BME280;66903;59.926;30.404;2023-04-09T23:57:58;102650.38;;;27.45;25.92
